sensor_id;sensor_type;location;lat;lon;timestamp;temperature;humidity
26595;DHT22;14238;49.496;8.154;2022-12-29T00:02:18;10.70;99.90
26595;DHT22;14238;49.496;8.154;2022-12-29T00:04:43;10.60;99.90
26595;DHT22;14238;49.496;8.154;2022-12-29T00:07:10;10.70;99.90
26595;DHT22;14238;49.496;8.154;2022-12-29T00:09:36;10.60;99.90
26595;DHT22;14238;49.496;8.154;2022-12-29T00:12:02;10.60;99.90
26595;DHT22;14238;49.496;8.154;2022-12-29T00:14:28;10.60;99.90
26595;DHT22;14238;49.496;8.154;2022-12-29T00:17:13;10.50;99.90
26595;DHT22;14238;49.496;8.154;2022-12-29T00:19:38;10.60;99.90
26595;DHT22;14238;49.496;8.154;2022-12-29T00:22:23;10.60;99.90
26595;DHT22;14238;49.496;8.154;2022-12-29T00:25:09;10.50;99.90
26595;DHT22;14238;49.496;8.154;2022-12-29T00:27:53;10.50;99.90
26595;DHT22;14238;49.496;8.154;2022-12-29T00:30:37;10.70;99.90
26595;DHT22;14238;49.496;8.154;2022-12-29T00:33:26;10.70;99.90
26595;DHT22;14238;49.496;8.154;2022-12-29T00:36:32;10.60;99.90
26595;DHT22;14238;49.496;8.154;2022-12-29T00:39:03;10.60;99.90
26595;DHT22;14238;49.496;8.154;2022-12-29T00:41:50;10.50;99.90
26595;DHT22;14238;49.496;8.154;2022-12-29T00:44:34;10.60;99.90
26595;DHT22;14238;49.496;8.154;2022-12-29T00:47:00;10.50;99.90
26595;DHT22;14238;49.496;8.154;2022-12-29T00:49:28;10.50;99.90
26595;DHT22;14238;49.496;8.154;2022-12-29T00:52:00;10.50;99.90
26595;DHT22;14238;49.496;8.154;2022-12-29T00:54:27;10.50;99.90
26595;DHT22;14238;49.496;8.154;2022-12-29T00:56:52;10.40;99.90
26595;DHT22;14238;49.496;8.154;2022-12-29T00:59:19;10.40;99.90
26595;DHT22;14238;49.496;8.154;2022-12-29T01:01:45;10.40;99.90
26595;DHT22;14238;49.496;8.154;2022-12-29T01:04:12;10.40;99.90
26595;DHT22;14238;49.496;8.154;2022-12-29T01:06:39;10.40;99.90
26595;DHT22;14238;49.496;8.154;2022-12-29T01:09:07;10.40;99.90
26595;DHT22;14238;49.496;8.154;2022-12-29T01:11:51;10.30;99.90
26595;DHT22;14238;49.496;8.154;2022-12-29T01:14:18;10.40;99.90
26595;DHT22;14238;49.496;8.154;2022-12-29T01:16:44;10.40;99.90
26595;DHT22;14238;49.496;8.154;2022-12-29T01:19:10;10.40;99.90
26595;DHT22;14238;49.496;8.154;2022-12-29T01:21:36;10.40;99.90
26595;DHT22;14238;49.496;8.154;2022-12-29T01:24:01;10.50;99.90
26595;DHT22;14238;49.496;8.154;2022-12-29T01:26:27;10.50;99.90
26595;DHT22;14238;49.496;8.154;2022-12-29T01:28:53;10.60;99.90
26595;DHT22;14238;49.496;8.154;2022-12-29T01:31:18;10.60;99.90
26595;DHT22;14238;49.496;8.154;2022-12-29T01:33:44;10.70;99.90
26595;DHT22;14238;49.496;8.154;2022-12-29T01:36:12;10.70;99.90
26595;DHT22;14238;49.496;8.154;2022-12-29T01:38:39;10.60;99.90
26595;DHT22;14238;49.496;8.154;2022-12-29T01:41:06;10.70;99.90
26595;DHT22;14238;49.496;8.154;2022-12-29T01:46:25;10.80;99.90
26595;DHT22;14238;49.496;8.154;2022-12-29T01:48:55;10.80;99.90
26595;DHT22;14238;49.496;8.154;2022-12-29T01:51:23;10.80;99.90
26595;DHT22;14238;49.496;8.154;2022-12-29T01:53:50;10.80;99.90
26595;DHT22;14238;49.496;8.154;2022-12-29T01:56:18;10.80;99.90
26595;DHT22;14238;49.496;8.154;2022-12-29T01:58:46;10.90;99.90
26595;DHT22;14238;49.496;8.154;2022-12-29T02:01:13;10.90;99.90
26595;DHT22;14238;49.496;8.154;2022-12-29T02:03:39;10.80;99.90
26595;DHT22;14238;49.496;8.154;2022-12-29T02:06:24;10.80;99.90
26595;DHT22;14238;49.496;8.154;2022-12-29T02:08:52;10.80;99.90
26595;DHT22;14238;49.496;8.154;2022-12-29T02:11:19;10.80;99.90
26595;DHT22;14238;49.496;8.154;2022-12-29T02:13:46;10.80;99.90
26595;DHT22;14238;49.496;8.154;2022-12-29T02:25:10;10.70;99.90
26595;DHT22;14238;49.496;8.154;2022-12-29T02:27:51;10.70;99.90
26595;DHT22;14238;49.496;8.154;2022-12-29T02:30:48;10.70;99.90
26595;DHT22;14238;49.496;8.154;2022-12-29T02:34:00;10.60;99.90
26595;DHT22;14238;49.496;8.154;2022-12-29T02:39:27;10.70;99.90
26595;DHT22;14238;49.496;8.154;2022-12-29T02:42:30;10.80;99.90
26595;DHT22;14238;49.496;8.154;2022-12-29T02:47:37;10.80;99.90
26595;DHT22;14238;49.496;8.154;2022-12-29T02:50:23;10.70;99.90
26595;DHT22;14238;49.496;8.154;2022-12-29T02:52:59;10.80;99.90
26595;DHT22;14238;49.496;8.154;2022-12-29T02:55:26;10.90;99.90
26595;DHT22;14238;49.496;8.154;2022-12-29T02:58:15;10.90;99.90
26595;DHT22;14238;49.496;8.154;2022-12-29T03:00:56;10.90;99.90
26595;DHT22;14238;49.496;8.154;2022-12-29T03:03:36;11.00;99.90
26595;DHT22;14238;49.496;8.154;2022-12-29T03:06:25;11.10;99.90
26595;DHT22;14238;49.496;8.154;2022-12-29T03:11:59;11.00;99.90
26595;DHT22;14238;49.496;8.154;2022-12-29T03:18:10;10.90;99.90
26595;DHT22;14238;49.496;8.154;2022-12-29T03:21:09;11.10;99.90
26595;DHT22;14238;49.496;8.154;2022-12-29T03:23:37;11.10;99.90
26595;DHT22;14238;49.496;8.154;2022-12-29T03:26:08;11.10;99.90
26595;DHT22;14238;49.496;8.154;2022-12-29T03:28:38;11.20;99.90
26595;DHT22;14238;49.496;8.154;2022-12-29T03:31:06;11.10;99.90
26595;DHT22;14238;49.496;8.154;2022-12-29T03:33:33;11.20;99.90
26595;DHT22;14238;49.496;8.154;2022-12-29T03:36:03;11.00;99.90
26595;DHT22;14238;49.496;8.154;2022-12-29T03:38:59;11.00;99.90
26595;DHT22;14238;49.496;8.154;2022-12-29T03:41:30;11.00;99.90
26595;DHT22;14238;49.496;8.154;2022-12-29T03:43:56;11.00;99.90
26595;DHT22;14238;49.496;8.154;2022-12-29T03:46:21;11.10;99.90
26595;DHT22;14238;49.496;8.154;2022-12-29T03:48:47;11.10;99.90
26595;DHT22;14238;49.496;8.154;2022-12-29T03:51:12;11.00;99.90
26595;DHT22;14238;49.496;8.154;2022-12-29T03:53:38;11.10;99.90
26595;DHT22;14238;49.496;8.154;2022-12-29T03:56:03;11.00;99.90
26595;DHT22;14238;49.496;8.154;2022-12-29T03:58:29;11.20;99.90
26595;DHT22;14238;49.496;8.154;2022-12-29T04:00:55;11.10;99.90
26595;DHT22;14238;49.496;8.154;2022-12-29T04:03:20;11.10;99.90
26595;DHT22;14238;49.496;8.154;2022-12-29T04:05:46;11.10;99.90
26595;DHT22;14238;49.496;8.154;2022-12-29T04:08:11;11.10;99.90
26595;DHT22;14238;49.496;8.154;2022-12-29T04:10:37;11.20;99.90
26595;DHT22;14238;49.496;8.154;2022-12-29T04:13:02;11.10;99.90
26595;DHT22;14238;49.496;8.154;2022-12-29T04:15:28;11.10;99.90
26595;DHT22;14238;49.496;8.154;2022-12-29T04:17:54;11.10;99.90
26595;DHT22;14238;49.496;8.154;2022-12-29T04:20:19;11.10;99.90
26595;DHT22;14238;49.496;8.154;2022-12-29T04:23:04;11.10;99.90
26595;DHT22;14238;49.496;8.154;2022-12-29T04:25:31;11.10;99.90
26595;DHT22;14238;49.496;8.154;2022-12-29T04:27:57;11.10;99.90
26595;DHT22;14238;49.496;8.154;2022-12-29T04:30:23;11.10;99.90
26595;DHT22;14238;49.496;8.154;2022-12-29T04:32:48;11.10;99.90
26595;DHT22;14238;49.496;8.154;2022-12-29T04:35:14;11.10;99.90
26595;DHT22;14238;49.496;8.154;2022-12-29T04:37:39;11.00;99.90
26595;DHT22;14238;49.496;8.154;2022-12-29T04:40:05;11.10;99.90
26595;DHT22;14238;49.496;8.154;2022-12-29T04:42:31;11.20;99.90
26595;DHT22;14238;49.496;8.154;2022-12-29T04:44:57;11.10;99.90
26595;DHT22;14238;49.496;8.154;2022-12-29T04:47:22;11.00;99.90
26595;DHT22;14238;49.496;8.154;2022-12-29T04:49:48;11.00;99.90
26595;DHT22;14238;49.496;8.154;2022-12-29T04:52:13;11.00;99.90
26595;DHT22;14238;49.496;8.154;2022-12-29T04:54:39;10.90;99.90
26595;DHT22;14238;49.496;8.154;2022-12-29T04:57:05;11.10;99.90
26595;DHT22;14238;49.496;8.154;2022-12-29T04:59:30;11.10;99.90
26595;DHT22;14238;49.496;8.154;2022-12-29T05:01:56;11.10;99.90
26595;DHT22;14238;49.496;8.154;2022-12-29T05:04:21;11.20;99.90
26595;DHT22;14238;49.496;8.154;2022-12-29T05:06:47;11.10;99.90
26595;DHT22;14238;49.496;8.154;2022-12-29T05:09:13;11.20;99.90
26595;DHT22;14238;49.496;8.154;2022-12-29T05:11:38;11.30;99.90
26595;DHT22;14238;49.496;8.154;2022-12-29T05:14:04;11.30;99.90
26595;DHT22;14238;49.496;8.154;2022-12-29T05:16:30;11.40;99.90
26595;DHT22;14238;49.496;8.154;2022-12-29T05:18:55;11.20;99.90
26595;DHT22;14238;49.496;8.154;2022-12-29T05:21:21;11.30;99.90
26595;DHT22;14238;49.496;8.154;2022-12-29T05:23:46;11.30;99.90
26595;DHT22;14238;49.496;8.154;2022-12-29T05:26:12;11.40;99.90
26595;DHT22;14238;49.496;8.154;2022-12-29T05:28:37;11.30;99.90
26595;DHT22;14238;49.496;8.154;2022-12-29T05:31:03;11.40;99.90
26595;DHT22;14238;49.496;8.154;2022-12-29T05:33:29;11.40;99.90
26595;DHT22;14238;49.496;8.154;2022-12-29T05:35:54;11.30;99.90
26595;DHT22;14238;49.496;8.154;2022-12-29T05:38:20;11.30;99.90
26595;DHT22;14238;49.496;8.154;2022-12-29T05:40:45;11.40;99.90
26595;DHT22;14238;49.496;8.154;2022-12-29T05:43:11;11.50;99.90
26595;DHT22;14238;49.496;8.154;2022-12-29T05:45:36;11.50;99.90
26595;DHT22;14238;49.496;8.154;2022-12-29T05:48:02;11.50;99.90
26595;DHT22;14238;49.496;8.154;2022-12-29T05:50:28;11.50;99.90
26595;DHT22;14238;49.496;8.154;2022-12-29T05:52:53;11.50;99.90
26595;DHT22;14238;49.496;8.154;2022-12-29T05:55:19;11.50;99.90
26595;DHT22;14238;49.496;8.154;2022-12-29T05:57:44;11.40;99.90
26595;DHT22;14238;49.496;8.154;2022-12-29T06:00:11;11.40;99.90
26595;DHT22;14238;49.496;8.154;2022-12-29T06:02:36;11.40;99.90
26595;DHT22;14238;49.496;8.154;2022-12-29T06:05:02;11.40;99.90
26595;DHT22;14238;49.496;8.154;2022-12-29T06:07:28;11.40;99.90
26595;DHT22;14238;49.496;8.154;2022-12-29T06:09:53;11.40;99.90
26595;DHT22;14238;49.496;8.154;2022-12-29T06:12:19;11.40;99.90
26595;DHT22;14238;49.496;8.154;2022-12-29T06:14:44;11.50;99.90
26595;DHT22;14238;49.496;8.154;2022-12-29T06:17:10;11.50;99.90
26595;DHT22;14238;49.496;8.154;2022-12-29T06:19:35;11.50;99.90
26595;DHT22;14238;49.496;8.154;2022-12-29T06:22:01;11.50;99.90
26595;DHT22;14238;49.496;8.154;2022-12-29T06:24:27;11.50;99.90
26595;DHT22;14238;49.496;8.154;2022-12-29T06:26:52;11.50;99.90
26595;DHT22;14238;49.496;8.154;2022-12-29T06:29:18;11.50;99.90
26595;DHT22;14238;49.496;8.154;2022-12-29T06:31:45;11.40;99.90
26595;DHT22;14238;49.496;8.154;2022-12-29T06:34:12;11.30;99.90
26595;DHT22;14238;49.496;8.154;2022-12-29T06:36:38;11.40;99.90
26595;DHT22;14238;49.496;8.154;2022-12-29T06:39:03;11.50;99.90
26595;DHT22;14238;49.496;8.154;2022-12-29T06:41:29;11.40;99.90
26595;DHT22;14238;49.496;8.154;2022-12-29T06:43:54;11.40;99.90
26595;DHT22;14238;49.496;8.154;2022-12-29T06:46:20;11.40;99.90
26595;DHT22;14238;49.496;8.154;2022-12-29T06:48:46;11.50;99.90
26595;DHT22;14238;49.496;8.154;2022-12-29T06:51:11;11.70;99.90
26595;DHT22;14238;49.496;8.154;2022-12-29T06:53:37;11.70;99.90
26595;DHT22;14238;49.496;8.154;2022-12-29T06:56:03;11.80;99.90
26595;DHT22;14238;49.496;8.154;2022-12-29T06:58:29;11.70;99.90
26595;DHT22;14238;49.496;8.154;2022-12-29T07:00:54;11.60;99.90
26595;DHT22;14238;49.496;8.154;2022-12-29T07:03:20;11.60;99.90
26595;DHT22;14238;49.496;8.154;2022-12-29T07:05:45;11.80;99.90
26595;DHT22;14238;49.496;8.154;2022-12-29T07:08:11;11.90;99.90
26595;DHT22;14238;49.496;8.154;2022-12-29T07:10:36;11.90;99.90
26595;DHT22;14238;49.496;8.154;2022-12-29T07:13:02;11.90;99.90
26595;DHT22;14238;49.496;8.154;2022-12-29T07:15:27;12.00;99.90
26595;DHT22;14238;49.496;8.154;2022-12-29T07:17:53;12.00;99.90
26595;DHT22;14238;49.496;8.154;2022-12-29T07:20:19;11.90;99.90
26595;DHT22;14238;49.496;8.154;2022-12-29T07:22:44;12.00;99.90
26595;DHT22;14238;49.496;8.154;2022-12-29T07:25:10;12.00;99.90
26595;DHT22;14238;49.496;8.154;2022-12-29T07:27:35;12.00;99.90
26595;DHT22;14238;49.496;8.154;2022-12-29T07:30:01;12.00;99.90
26595;DHT22;14238;49.496;8.154;2022-12-29T07:34:52;12.10;99.90
26595;DHT22;14238;49.496;8.154;2022-12-29T07:37:18;12.10;99.90
26595;DHT22;14238;49.496;8.154;2022-12-29T07:39:44;12.00;99.90
26595;DHT22;14238;49.496;8.154;2022-12-29T07:42:09;12.00;99.90
26595;DHT22;14238;49.496;8.154;2022-12-29T07:44:35;12.10;99.90
26595;DHT22;14238;49.496;8.154;2022-12-29T07:47:02;12.10;99.90
26595;DHT22;14238;49.496;8.154;2022-12-29T07:49:27;12.10;99.90
26595;DHT22;14238;49.496;8.154;2022-12-29T07:51:53;12.20;99.90
26595;DHT22;14238;49.496;8.154;2022-12-29T07:54:18;12.20;99.90
26595;DHT22;14238;49.496;8.154;2022-12-29T07:56:44;12.10;99.90
26595;DHT22;14238;49.496;8.154;2022-12-29T07:59:10;12.10;99.90
26595;DHT22;14238;49.496;8.154;2022-12-29T08:01:37;12.20;99.90
26595;DHT22;14238;49.496;8.154;2022-12-29T08:04:03;12.10;99.90
26595;DHT22;14238;49.496;8.154;2022-12-29T08:06:28;12.20;99.90
26595;DHT22;14238;49.496;8.154;2022-12-29T08:08:56;12.20;99.90
26595;DHT22;14238;49.496;8.154;2022-12-29T08:11:22;12.20;99.90
26595;DHT22;14238;49.496;8.154;2022-12-29T08:13:48;12.20;99.90
26595;DHT22;14238;49.496;8.154;2022-12-29T08:16:13;12.30;99.90
26595;DHT22;14238;49.496;8.154;2022-12-29T08:18:39;12.30;99.90
26595;DHT22;14238;49.496;8.154;2022-12-29T08:21:05;12.30;99.90
26595;DHT22;14238;49.496;8.154;2022-12-29T08:23:31;12.30;99.90
26595;DHT22;14238;49.496;8.154;2022-12-29T08:25:58;12.20;99.90
26595;DHT22;14238;49.496;8.154;2022-12-29T08:28:23;12.20;99.90
26595;DHT22;14238;49.496;8.154;2022-12-29T08:30:49;12.10;99.90
26595;DHT22;14238;49.496;8.154;2022-12-29T08:33:14;12.10;99.90
26595;DHT22;14238;49.496;8.154;2022-12-29T08:35:40;12.00;99.90
26595;DHT22;14238;49.496;8.154;2022-12-29T08:38:05;12.00;99.90
26595;DHT22;14238;49.496;8.154;2022-12-29T08:40:31;12.10;99.90
26595;DHT22;14238;49.496;8.154;2022-12-29T08:42:56;12.00;99.90
26595;DHT22;14238;49.496;8.154;2022-12-29T08:45:22;12.10;99.90
26595;DHT22;14238;49.496;8.154;2022-12-29T08:47:47;12.10;99.90
26595;DHT22;14238;49.496;8.154;2022-12-29T08:50:13;12.10;99.90
26595;DHT22;14238;49.496;8.154;2022-12-29T08:52:38;12.10;99.90
26595;DHT22;14238;49.496;8.154;2022-12-29T08:55:04;12.00;99.90
26595;DHT22;14238;49.496;8.154;2022-12-29T08:57:30;11.80;99.90
26595;DHT22;14238;49.496;8.154;2022-12-29T08:59:55;11.70;99.90
26595;DHT22;14238;49.496;8.154;2022-12-29T09:02:21;11.60;99.90
26595;DHT22;14238;49.496;8.154;2022-12-29T09:04:46;11.60;99.90
26595;DHT22;14238;49.496;8.154;2022-12-29T09:07:12;11.70;99.90
26595;DHT22;14238;49.496;8.154;2022-12-29T09:09:37;11.70;99.90
26595;DHT22;14238;49.496;8.154;2022-12-29T09:12:03;11.70;99.90
26595;DHT22;14238;49.496;8.154;2022-12-29T09:14:28;11.70;99.90
26595;DHT22;14238;49.496;8.154;2022-12-29T09:16:54;11.80;99.90
26595;DHT22;14238;49.496;8.154;2022-12-29T09:19:38;11.90;99.90
26595;DHT22;14238;49.496;8.154;2022-12-29T09:22:04;12.00;99.90
26595;DHT22;14238;49.496;8.154;2022-12-29T09:24:29;11.90;99.90
26595;DHT22;14238;49.496;8.154;2022-12-29T09:26:56;11.90;99.90
26595;DHT22;14238;49.496;8.154;2022-12-29T09:29:21;11.80;99.90
26595;DHT22;14238;49.496;8.154;2022-12-29T09:31:47;11.80;99.90
26595;DHT22;14238;49.496;8.154;2022-12-29T09:34:13;11.80;99.90
26595;DHT22;14238;49.496;8.154;2022-12-29T09:36:38;11.70;99.90
26595;DHT22;14238;49.496;8.154;2022-12-29T09:39:04;11.70;99.90
26595;DHT22;14238;49.496;8.154;2022-12-29T09:41:46;11.60;99.90
26595;DHT22;14238;49.496;8.154;2022-12-29T09:44:25;11.70;99.90
26595;DHT22;14238;49.496;8.154;2022-12-29T09:46:54;11.70;99.90
26595;DHT22;14238;49.496;8.154;2022-12-29T09:49:44;11.70;99.90
26595;DHT22;14238;49.496;8.154;2022-12-29T09:52:15;11.80;99.90
26595;DHT22;14238;49.496;8.154;2022-12-29T09:55:19;12.10;99.90
26595;DHT22;14238;49.496;8.154;2022-12-29T09:57:51;12.20;99.90
26595;DHT22;14238;49.496;8.154;2022-12-29T10:00:22;12.30;99.90
26595;DHT22;14238;49.496;8.154;2022-12-29T10:03:17;12.20;99.90
26595;DHT22;14238;49.496;8.154;2022-12-29T10:06:12;12.10;99.90
26595;DHT22;14238;49.496;8.154;2022-12-29T10:11:46;12.10;99.90
26595;DHT22;14238;49.496;8.154;2022-12-29T10:25:22;12.20;99.90
26595;DHT22;14238;49.496;8.154;2022-12-29T10:27:51;12.20;99.90
26595;DHT22;14238;49.496;8.154;2022-12-29T10:30:19;12.20;99.90
26595;DHT22;14238;49.496;8.154;2022-12-29T10:32:49;12.20;99.90
26595;DHT22;14238;49.496;8.154;2022-12-29T10:40:25;12.10;99.90
26595;DHT22;14238;49.496;8.154;2022-12-29T10:42:54;12.20;99.90
26595;DHT22;14238;49.496;8.154;2022-12-29T10:45:22;12.10;99.90
26595;DHT22;14238;49.496;8.154;2022-12-29T10:48:18;12.00;99.90
26595;DHT22;14238;49.496;8.154;2022-12-29T10:50:39;12.00;99.90
26595;DHT22;14238;49.496;8.154;2022-12-29T10:53:15;12.00;99.90
26595;DHT22;14238;49.496;8.154;2022-12-29T10:55:43;12.10;99.90
26595;DHT22;14238;49.496;8.154;2022-12-29T10:58:12;12.10;99.90
26595;DHT22;14238;49.496;8.154;2022-12-29T11:00:38;12.00;99.90
26595;DHT22;14238;49.496;8.154;2022-12-29T11:03:46;11.80;99.90
26595;DHT22;14238;49.496;8.154;2022-12-29T11:06:34;11.60;99.90
26595;DHT22;14238;49.496;8.154;2022-12-29T11:09:12;11.30;99.90
26595;DHT22;14238;49.496;8.154;2022-12-29T11:11:39;11.20;99.90
26595;DHT22;14238;49.496;8.154;2022-12-29T11:16:39;10.90;99.90
26595;DHT22;14238;49.496;8.154;2022-12-29T11:19:22;10.70;99.90
26595;DHT22;14238;49.496;8.154;2022-12-29T11:21:49;10.60;99.90
26595;DHT22;14238;49.496;8.154;2022-12-29T11:24:44;10.60;99.90
26595;DHT22;14238;49.496;8.154;2022-12-29T11:27:22;10.70;99.90
26595;DHT22;14238;49.496;8.154;2022-12-29T11:29:49;10.70;99.90
26595;DHT22;14238;49.496;8.154;2022-12-29T11:32:24;10.60;99.90
26595;DHT22;14238;49.496;8.154;2022-12-29T11:34:50;10.60;99.90
26595;DHT22;14238;49.496;8.154;2022-12-29T11:37:38;10.60;99.90
26595;DHT22;14238;49.496;8.154;2022-12-29T11:40:17;10.70;99.90
26595;DHT22;14238;49.496;8.154;2022-12-29T11:42:58;10.90;99.90
26595;DHT22;14238;49.496;8.154;2022-12-29T11:45:44;11.90;99.90
26595;DHT22;14238;49.496;8.154;2022-12-29T11:48:17;12.50;99.90
26595;DHT22;14238;49.496;8.154;2022-12-29T11:50:53;12.50;99.90
26595;DHT22;14238;49.496;8.154;2022-12-29T11:56:02;12.20;99.90
26595;DHT22;14238;49.496;8.154;2022-12-29T11:58:34;12.10;99.90
26595;DHT22;14238;49.496;8.154;2022-12-29T12:01:51;12.00;99.90
26595;DHT22;14238;49.496;8.154;2022-12-29T12:04:08;12.30;99.90
26595;DHT22;14238;49.496;8.154;2022-12-29T12:06:43;13.00;99.90
26595;DHT22;14238;49.496;8.154;2022-12-29T12:09:19;13.50;99.90
26595;DHT22;14238;49.496;8.154;2022-12-29T12:11:51;13.70;99.90
26595;DHT22;14238;49.496;8.154;2022-12-29T12:14:38;13.70;99.90
26595;DHT22;14238;49.496;8.154;2022-12-29T12:17:14;14.00;99.90
26595;DHT22;14238;49.496;8.154;2022-12-29T12:19:58;13.70;99.90
26595;DHT22;14238;49.496;8.154;2022-12-29T12:22:33;12.80;99.90
26595;DHT22;14238;49.496;8.154;2022-12-29T12:25:24;12.40;99.90
26595;DHT22;14238;49.496;8.154;2022-12-29T12:27:56;12.20;99.90
26595;DHT22;14238;49.496;8.154;2022-12-29T12:30:24;12.20;99.90
26595;DHT22;14238;49.496;8.154;2022-12-29T12:44:01;11.80;99.90
26595;DHT22;14238;49.496;8.154;2022-12-29T12:47:05;11.70;99.90
26595;DHT22;14238;49.496;8.154;2022-12-29T12:56:09;11.50;99.90
26595;DHT22;14238;49.496;8.154;2022-12-29T12:58:42;11.40;99.90
26595;DHT22;14238;49.496;8.154;2022-12-29T13:01:38;11.30;99.90
26595;DHT22;14238;49.496;8.154;2022-12-29T13:04:17;11.30;99.90
26595;DHT22;14238;49.496;8.154;2022-12-29T13:13:10;11.10;99.90
26595;DHT22;14238;49.496;8.154;2022-12-29T13:16:22;11.00;99.90
26595;DHT22;14238;49.496;8.154;2022-12-29T13:22:25;11.00;99.90
26595;DHT22;14238;49.496;8.154;2022-12-29T13:28:10;10.90;99.90
26595;DHT22;14238;49.496;8.154;2022-12-29T13:33:33;10.90;99.90
26595;DHT22;14238;49.496;8.154;2022-12-29T13:36:23;10.90;99.90
26595;DHT22;14238;49.496;8.154;2022-12-29T13:39:00;10.90;99.90
26595;DHT22;14238;49.496;8.154;2022-12-29T13:41:37;10.90;99.90
26595;DHT22;14238;49.496;8.154;2022-12-29T13:44:05;10.90;99.90
26595;DHT22;14238;49.496;8.154;2022-12-29T13:46:39;10.80;99.90
26595;DHT22;14238;49.496;8.154;2022-12-29T13:49:22;10.90;99.90
26595;DHT22;14238;49.496;8.154;2022-12-29T13:57:51;10.90;99.90
26595;DHT22;14238;49.496;8.154;2022-12-29T14:00:21;10.80;99.90
26595;DHT22;14238;49.496;8.154;2022-12-29T14:07:52;10.40;99.90
26595;DHT22;14238;49.496;8.154;2022-12-29T14:10:36;10.30;99.90
26595;DHT22;14238;49.496;8.154;2022-12-29T14:13:12;10.20;99.90
26595;DHT22;14238;49.496;8.154;2022-12-29T14:15:41;10.00;99.90
26595;DHT22;14238;49.496;8.154;2022-12-29T14:18:14;10.00;99.90
26595;DHT22;14238;49.496;8.154;2022-12-29T14:20:54;9.90;99.90
26595;DHT22;14238;49.496;8.154;2022-12-29T14:28:45;9.80;99.90
26595;DHT22;14238;49.496;8.154;2022-12-29T14:33:41;9.80;99.90
26595;DHT22;14238;49.496;8.154;2022-12-29T14:36:42;9.70;99.90
26595;DHT22;14238;49.496;8.154;2022-12-29T14:44:30;9.60;99.90
26595;DHT22;14238;49.496;8.154;2022-12-29T14:46:59;9.60;99.90
26595;DHT22;14238;49.496;8.154;2022-12-29T14:49:31;9.50;99.90
26595;DHT22;14238;49.496;8.154;2022-12-29T14:54:46;9.50;99.90
26595;DHT22;14238;49.496;8.154;2022-12-29T14:57:40;9.50;99.90
26595;DHT22;14238;49.496;8.154;2022-12-29T15:00:23;9.50;99.90
26595;DHT22;14238;49.496;8.154;2022-12-29T15:02:59;9.60;99.90
26595;DHT22;14238;49.496;8.154;2022-12-29T15:05:37;9.70;99.90
26595;DHT22;14238;49.496;8.154;2022-12-29T15:08:07;9.60;99.90
26595;DHT22;14238;49.496;8.154;2022-12-29T15:10:47;9.60;99.90
26595;DHT22;14238;49.496;8.154;2022-12-29T15:13:21;9.60;99.90
26595;DHT22;14238;49.496;8.154;2022-12-29T15:15:47;9.60;99.90
26595;DHT22;14238;49.496;8.154;2022-12-29T15:18:29;9.60;99.90
26595;DHT22;14238;49.496;8.154;2022-12-29T15:21:00;9.50;99.90
26595;DHT22;14238;49.496;8.154;2022-12-29T15:23:30;9.50;99.90
26595;DHT22;14238;49.496;8.154;2022-12-29T15:26:07;9.50;99.90
26595;DHT22;14238;49.496;8.154;2022-12-29T15:28:44;9.50;99.90
26595;DHT22;14238;49.496;8.154;2022-12-29T15:31:22;9.50;99.90
26595;DHT22;14238;49.496;8.154;2022-12-29T15:33:54;9.50;99.90
26595;DHT22;14238;49.496;8.154;2022-12-29T15:36:28;9.40;99.90
26595;DHT22;14238;49.496;8.154;2022-12-29T15:38:54;9.30;99.90
26595;DHT22;14238;49.496;8.154;2022-12-29T15:41:40;9.30;99.90
26595;DHT22;14238;49.496;8.154;2022-12-29T15:44:45;9.30;99.90
26595;DHT22;14238;49.496;8.154;2022-12-29T15:47:19;9.20;99.90
26595;DHT22;14238;49.496;8.154;2022-12-29T15:49:50;9.10;99.90
26595;DHT22;14238;49.496;8.154;2022-12-29T15:52:22;9.10;99.90
26595;DHT22;14238;49.496;8.154;2022-12-29T15:54:50;9.10;99.90
26595;DHT22;14238;49.496;8.154;2022-12-29T15:57:28;9.10;99.90
26595;DHT22;14238;49.496;8.154;2022-12-29T15:59:54;9.20;99.90
26595;DHT22;14238;49.496;8.154;2022-12-29T16:02:21;9.10;99.90
26595;DHT22;14238;49.496;8.154;2022-12-29T16:04:48;9.20;99.90
26595;DHT22;14238;49.496;8.154;2022-12-29T16:07:31;9.20;99.90
26595;DHT22;14238;49.496;8.154;2022-12-29T16:10:00;9.30;99.90
26595;DHT22;14238;49.496;8.154;2022-12-29T16:12:31;9.30;99.90
26595;DHT22;14238;49.496;8.154;2022-12-29T16:14:59;9.20;99.90
26595;DHT22;14238;49.496;8.154;2022-12-29T16:17:31;9.10;99.90
26595;DHT22;14238;49.496;8.154;2022-12-29T16:20:03;9.20;99.90
26595;DHT22;14238;49.496;8.154;2022-12-29T16:22:38;9.20;99.90
26595;DHT22;14238;49.496;8.154;2022-12-29T16:25:31;9.20;99.90
26595;DHT22;14238;49.496;8.154;2022-12-29T16:27:58;9.30;99.90
26595;DHT22;14238;49.496;8.154;2022-12-29T16:30:26;9.40;99.90
26595;DHT22;14238;49.496;8.154;2022-12-29T16:33:04;9.40;99.90
26595;DHT22;14238;49.496;8.154;2022-12-29T16:35:46;9.40;99.90
26595;DHT22;14238;49.496;8.154;2022-12-29T16:38:17;9.40;99.90
26595;DHT22;14238;49.496;8.154;2022-12-29T16:40:55;9.40;99.90
26595;DHT22;14238;49.496;8.154;2022-12-29T16:43:25;9.30;99.90
26595;DHT22;14238;49.496;8.154;2022-12-29T16:48:21;9.30;99.90
26595;DHT22;14238;49.496;8.154;2022-12-29T16:50:48;9.30;99.90
26595;DHT22;14238;49.496;8.154;2022-12-29T16:55:50;9.30;99.90
26595;DHT22;14238;49.496;8.154;2022-12-29T16:58:23;9.30;99.90
26595;DHT22;14238;49.496;8.154;2022-12-29T17:00:53;9.30;99.90
26595;DHT22;14238;49.496;8.154;2022-12-29T17:03:20;9.30;99.90
26595;DHT22;14238;49.496;8.154;2022-12-29T17:05:45;9.30;99.90
26595;DHT22;14238;49.496;8.154;2022-12-29T17:08:19;9.30;99.90
26595;DHT22;14238;49.496;8.154;2022-12-29T17:10:55;9.30;99.90
26595;DHT22;14238;49.496;8.154;2022-12-29T17:13:40;9.30;99.90
26595;DHT22;14238;49.496;8.154;2022-12-29T17:16:07;9.30;99.90
26595;DHT22;14238;49.496;8.154;2022-12-29T17:18:34;9.30;99.90
26595;DHT22;14238;49.496;8.154;2022-12-29T17:21:00;9.40;99.90
26595;DHT22;14238;49.496;8.154;2022-12-29T17:23:32;9.40;99.90
26595;DHT22;14238;49.496;8.154;2022-12-29T17:25:58;9.40;99.90
26595;DHT22;14238;49.496;8.154;2022-12-29T17:28:26;9.40;99.90
26595;DHT22;14238;49.496;8.154;2022-12-29T17:30:55;9.30;99.90
26595;DHT22;14238;49.496;8.154;2022-12-29T17:33:22;9.30;99.90
26595;DHT22;14238;49.496;8.154;2022-12-29T17:35:47;9.30;99.90
26595;DHT22;14238;49.496;8.154;2022-12-29T17:38:27;9.30;99.90
26595;DHT22;14238;49.496;8.154;2022-12-29T17:40:53;9.30;99.90
26595;DHT22;14238;49.496;8.154;2022-12-29T17:43:19;9.40;99.90
26595;DHT22;14238;49.496;8.154;2022-12-29T17:45:48;9.40;99.90
26595;DHT22;14238;49.496;8.154;2022-12-29T17:48:17;9.40;99.90
26595;DHT22;14238;49.496;8.154;2022-12-29T17:50:43;9.30;99.90
26595;DHT22;14238;49.496;8.154;2022-12-29T17:53:21;9.30;99.90
26595;DHT22;14238;49.496;8.154;2022-12-29T17:55:47;9.30;99.90
26595;DHT22;14238;49.496;8.154;2022-12-29T17:58:18;9.30;99.90